createdAt,value
2022-10-06T00:00:56.189Z,18.09
2022-10-06T00:03:23.253Z,17.69
2022-10-06T00:05:51.223Z,17.79
2022-10-06T00:08:18.922Z,18.78
2022-10-06T00:10:45.795Z,17.82
2022-10-06T00:13:12.844Z,17.96
2022-10-06T00:15:40.153Z,18.68
2022-10-06T00:18:07.085Z,18.35
2022-10-06T00:20:33.967Z,17.18
2022-10-06T00:23:00.872Z,17.06
2022-10-06T00:25:28.366Z,16.48
2022-10-06T00:33:18.342Z,16.47
2022-10-06T00:35:45.405Z,16.73
2022-10-06T00:38:13.498Z,16.23
2022-10-06T00:40:48.237Z,16.79
2022-10-06T00:43:44.351Z,17.16
2022-10-06T00:46:35.065Z,17.76
2022-10-06T02:33:57.671Z,17.41
2022-10-06T02:36:25.743Z,17.00
2022-10-06T02:38:52.594Z,16.61
2022-10-06T02:41:19.551Z,16.75
2022-10-06T02:43:46.773Z,15.90
2022-10-06T02:46:14.111Z,16.16
2022-10-06T04:46:00.189Z,15.78
2022-10-06T04:48:28.425Z,15.02
2022-10-06T04:50:57.020Z,15.37
2022-10-06T04:53:23.887Z,15.61
2022-10-06T04:56:06.214Z,15.19
2022-10-06T04:58:34.421Z,15.16
2022-10-06T05:01:02.271Z,14.77
2022-10-06T05:03:30.220Z,15.00
2022-10-06T05:06:08.458Z,15.56
2022-10-06T05:08:35.793Z,13.03
2022-10-06T05:11:04.446Z,13.86
2022-10-06T05:13:31.802Z,15.45
2022-10-06T05:15:59.572Z,14.34
2022-10-06T05:18:27.567Z,12.95
2022-10-06T05:21:06.780Z,13.90
2022-10-06T05:23:36.815Z,15.28
2022-10-06T05:26:04.487Z,15.73
2022-10-06T05:28:32.738Z,15.16
2022-10-06T05:31:10.598Z,15.39
2022-10-06T05:33:37.555Z,15.45
2022-10-06T05:36:06.947Z,16.31
2022-10-06T05:38:34.705Z,17.51
2022-10-06T05:41:12.136Z,18.33
2022-10-06T05:43:40.099Z,19.53
2022-10-06T05:46:09.416Z,20.25
2022-10-06T05:48:36.425Z,20.41
2022-10-06T05:51:07.851Z,21.03
2022-10-06T05:53:35.994Z,21.36
2022-10-06T05:56:03.960Z,22.43
2022-10-06T05:58:32.135Z,22.75
2022-10-06T06:06:24.805Z,24.83
2022-10-06T06:09:00.095Z,25.13
2022-10-06T06:11:28.110Z,25.15
2022-10-06T06:13:59.352Z,25.21
2022-10-06T06:16:26.747Z,25.00
2022-10-06T06:18:53.636Z,24.72
2022-10-06T06:21:21.409Z,25.08
2022-10-06T06:23:49.313Z,24.87
2022-10-06T06:26:28.316Z,25.20
2022-10-06T06:29:00.296Z,24.61
2022-10-06T06:31:30.013Z,24.88
2022-10-06T06:33:58.646Z,24.48
2022-10-06T06:36:32.149Z,25.14
2022-10-06T06:38:59.192Z,25.12
2022-10-06T06:41:31.643Z,24.63
2022-10-06T06:44:00.438Z,24.32
2022-10-06T06:46:32.147Z,24.35
2022-10-06T06:49:04.327Z,24.97
2022-10-06T06:51:33.356Z,25.31
2022-10-06T06:54:02.560Z,24.48
2022-10-06T06:56:35.231Z,24.62
2022-10-06T06:59:03.657Z,24.63
2022-10-06T07:01:30.828Z,24.90
2022-10-06T07:04:01.089Z,25.58
2022-10-06T07:06:29.497Z,25.22
2022-10-06T07:09:00.075Z,26.20
2022-10-06T07:11:31.345Z,26.21
2022-10-06T07:14:01.483Z,24.92
2022-10-06T07:16:48.499Z,26.53
2022-10-06T07:19:35.143Z,27.37
2022-10-06T07:22:27.766Z,28.12
2022-10-06T07:25:08.464Z,28.93
2022-10-06T07:27:43.634Z,27.54
2022-10-06T07:30:13.062Z,27.70
2022-10-06T07:32:39.974Z,27.65
2022-10-06T07:35:07.370Z,26.98
2022-10-06T07:37:37.987Z,28.48
2022-10-06T07:40:07.420Z,28.51
2022-10-06T07:42:47.990Z,29.27
2022-10-06T07:45:38.679Z,26.23
2022-10-06T07:48:07.616Z,27.28
2022-10-06T07:50:34.640Z,28.80
2022-10-06T07:53:05.066Z,29.01
2022-10-06T07:55:32.290Z,28.99
2022-10-06T07:57:59.135Z,28.47
2022-10-06T08:00:27.337Z,28.03
2022-10-06T08:02:57.242Z,27.35
2022-10-06T08:05:24.163Z,28.81
2022-10-06T08:07:52.251Z,26.62
2022-10-06T08:10:20.865Z,27.47
2022-10-06T08:15:19.965Z,29.33
2022-10-06T08:17:46.905Z,29.96
2022-10-06T08:20:14.446Z,30.12
2022-10-06T08:22:41.457Z,30.06
2022-10-06T08:25:10.365Z,30.29
2022-10-06T08:27:38.020Z,30.22
2022-10-06T08:30:06.179Z,30.17
2022-10-06T08:32:33.543Z,26.46
2022-10-06T08:35:00.415Z,29.18
2022-10-06T08:37:27.527Z,29.98
2022-10-06T08:39:55.046Z,29.82
2022-10-06T08:42:42.880Z,30.05
2022-10-06T08:45:26.860Z,29.25
2022-10-06T08:47:55.721Z,28.77
2022-10-06T08:50:26.507Z,29.03
2022-10-06T08:52:56.475Z,29.48
2022-10-06T08:55:38.496Z,29.28
2022-10-06T08:58:20.652Z,29.03
2022-10-06T09:03:24.975Z,27.13
2022-10-06T09:05:53.744Z,29.61
2022-10-06T09:08:54.178Z,28.86
2022-10-06T09:11:40.043Z,29.50
2022-10-06T09:14:18.263Z,30.14
2022-10-06T09:16:52.247Z,29.81
2022-10-06T09:19:33.862Z,30.56
2022-10-06T09:22:02.536Z,29.58
2022-10-06T09:24:47.154Z,30.43
2022-10-06T09:27:21.576Z,30.74
2022-10-06T09:32:23.619Z,27.38
2022-10-06T09:35:00.127Z,28.83
2022-10-06T09:37:27.930Z,26.64
2022-10-06T09:39:55.555Z,26.78
2022-10-06T09:42:35.853Z,26.20
2022-10-06T09:45:08.223Z,24.63
2022-10-06T09:47:39.449Z,24.30
2022-10-06T09:50:17.754Z,23.65
2022-10-06T09:53:16.469Z,24.12
2022-10-06T09:55:46.183Z,24.76
2022-10-06T09:58:38.090Z,24.96
2022-10-06T10:01:09.987Z,25.56
2022-10-06T10:04:18.884Z,25.20
2022-10-06T10:06:41.913Z,24.99
2022-10-06T10:09:21.739Z,24.81
2022-10-06T10:12:24.928Z,24.03
2022-10-06T10:14:52.608Z,25.08
2022-10-06T10:17:22.757Z,25.18
2022-10-06T10:19:53.358Z,25.12
2022-10-06T10:22:49.478Z,23.42
2022-10-06T10:25:34.821Z,24.30
2022-10-06T10:28:18.195Z,24.26
2022-10-06T10:30:53.652Z,24.80
2022-10-06T10:33:49.675Z,24.07
2022-10-06T10:36:34.783Z,25.15
2022-10-06T10:39:02.092Z,25.15
2022-10-06T10:41:37.971Z,24.98
2022-10-06T10:44:10.511Z,25.64
2022-10-06T10:46:49.195Z,24.93
2022-10-06T10:49:20.616Z,24.08
2022-10-06T10:51:57.575Z,24.69
2022-10-06T10:54:44.461Z,23.84
2022-10-06T10:57:15.717Z,24.42
2022-10-06T11:00:04.569Z,25.01
2022-10-06T11:02:31.512Z,25.15
2022-10-06T11:05:02.910Z,24.48
2022-10-06T11:07:38.546Z,24.34
2022-10-06T11:10:21.354Z,24.05
2022-10-06T11:13:11.249Z,23.42
2022-10-06T11:15:44.660Z,23.25
2022-10-06T11:18:27.094Z,23.60
2022-10-06T11:20:58.738Z,23.59
2022-10-06T11:23:54.947Z,24.70
2022-10-06T11:26:42.123Z,24.92
2022-10-06T11:29:33.099Z,25.19
2022-10-06T11:32:29.359Z,24.68
2022-10-06T11:34:56.352Z,24.64
2022-10-06T11:37:45.298Z,24.74
2022-10-06T11:40:39.488Z,24.21
2022-10-06T11:43:26.835Z,24.27
2022-10-06T11:46:45.142Z,23.52
2022-10-06T11:49:30.405Z,24.39
2022-10-06T11:52:08.290Z,23.53
2022-10-06T11:54:50.848Z,23.31
2022-10-06T11:57:27.975Z,24.16
2022-10-06T12:00:17.526Z,24.50
2022-10-06T12:02:46.295Z,24.57
2022-10-06T12:05:37.672Z,24.58
2022-10-06T12:08:01.858Z,24.44
2022-10-06T12:10:28.663Z,23.27
2022-10-06T12:13:40.038Z,23.99
2022-10-06T12:19:21.952Z,23.97
2022-10-06T12:21:51.945Z,23.86
2022-10-06T12:24:34.479Z,24.18
2022-10-06T12:27:27.360Z,23.58
2022-10-06T12:30:02.793Z,23.03
2022-10-06T12:32:48.984Z,23.41
2022-10-06T12:35:25.069Z,24.46
2022-10-06T12:37:58.555Z,23.51
2022-10-06T12:40:46.907Z,23.79
2022-10-06T12:43:21.048Z,24.34
2022-10-06T12:45:48.969Z,24.89
2022-10-06T12:48:21.478Z,24.34
2022-10-06T12:50:51.374Z,24.42
2022-10-06T12:53:23.230Z,24.84
2022-10-06T12:55:56.969Z,24.38
2022-10-06T12:58:29.324Z,24.83
2022-10-06T13:01:05.262Z,24.53
2022-10-06T13:03:32.317Z,24.53
2022-10-06T13:06:04.503Z,24.27
2022-10-06T13:08:33.613Z,24.85
2022-10-06T13:11:23.115Z,25.28
2022-10-06T13:13:52.224Z,24.46
2022-10-06T13:16:23.276Z,24.82
2022-10-06T13:18:55.159Z,25.50
2022-10-06T13:21:22.826Z,25.68
2022-10-06T13:23:50.166Z,25.70
2022-10-06T13:26:22.840Z,25.15
2022-10-06T13:28:55.239Z,24.61
2022-10-06T13:31:33.586Z,23.74
2022-10-06T13:34:14.242Z,24.36
2022-10-06T13:36:42.887Z,24.97
2022-10-06T13:39:18.154Z,24.67
2022-10-06T13:42:01.264Z,24.63
2022-10-06T13:44:39.975Z,24.59
2022-10-06T13:47:17.654Z,24.12
2022-10-06T13:50:03.878Z,23.72
2022-10-06T13:52:35.520Z,23.95
2022-10-06T13:55:03.725Z,24.02
2022-10-06T13:57:44.721Z,23.93
2022-10-06T14:00:22.010Z,23.33
2022-10-06T14:02:55.240Z,23.36
2022-10-06T14:05:30.662Z,22.77
2022-10-06T14:08:11.089Z,23.38
2022-10-06T14:10:40.962Z,23.11
2022-10-06T14:13:20.456Z,23.38
2022-10-06T14:15:53.675Z,23.86
2022-10-06T14:18:28.601Z,23.77
2022-10-06T14:20:57.294Z,23.39
2022-10-06T14:23:42.358Z,23.07
2022-10-06T14:26:11.855Z,23.13
2022-10-06T14:28:49.608Z,23.58
2022-10-06T14:31:16.564Z,23.38
2022-10-06T14:33:43.533Z,22.76
2022-10-06T14:36:25.815Z,22.24
2022-10-06T14:38:53.191Z,22.80
2022-10-06T14:41:24.770Z,22.43
2022-10-06T14:43:55.510Z,22.89
2022-10-06T14:46:23.030Z,23.32
2022-10-06T14:48:51.300Z,22.93
2022-10-06T14:51:19.289Z,22.57
2022-10-06T14:53:57.069Z,23.33
2022-10-06T14:56:29.159Z,23.46
2022-10-06T14:58:56.026Z,23.33
2022-10-06T15:01:25.240Z,23.63
2022-10-06T15:03:56.639Z,23.14
2022-10-06T15:06:42.850Z,23.07
2022-10-06T15:09:10.030Z,23.62
2022-10-06T15:11:37.490Z,24.10
2022-10-06T15:14:05.080Z,23.32
2022-10-06T15:16:33.423Z,23.29
2022-10-06T15:19:01.156Z,23.83
2022-10-06T15:21:28.119Z,23.35
2022-10-06T15:24:03.336Z,23.78
2022-10-06T15:26:49.738Z,22.71
2022-10-06T15:29:17.310Z,22.49
2022-10-06T15:31:53.168Z,23.23
2022-10-06T15:34:23.646Z,23.90
2022-10-06T15:36:52.245Z,23.65
2022-10-06T15:39:21.648Z,23.45
2022-10-06T15:41:48.812Z,23.72
2022-10-06T15:44:16.386Z,24.04
2022-10-06T15:46:54.422Z,23.09
2022-10-06T15:49:23.302Z,23.48
2022-10-06T15:51:55.106Z,23.38
2022-10-06T15:54:24.181Z,23.31
2022-10-06T15:56:53.190Z,23.43
2022-10-06T15:59:26.486Z,23.49
2022-10-06T16:01:58.269Z,23.17
2022-10-06T16:04:39.792Z,22.71
2022-10-06T16:07:11.508Z,22.72
2022-10-06T16:09:43.270Z,23.10
2022-10-06T16:12:13.935Z,23.33
2022-10-06T16:14:40.905Z,23.84
2022-10-06T16:17:09.684Z,23.42
2022-10-06T16:19:40.375Z,23.46
2022-10-06T16:22:10.576Z,22.71
2022-10-06T16:24:37.577Z,22.67
2022-10-06T16:27:04.552Z,22.87
2022-10-06T16:29:31.364Z,23.23
2022-10-06T16:31:59.364Z,23.04
2022-10-06T16:34:26.741Z,22.41
2022-10-06T16:36:53.642Z,22.67
2022-10-06T16:39:22.320Z,22.75
2022-10-06T16:41:50.368Z,22.84
2022-10-06T16:44:17.608Z,23.94
2022-10-06T16:46:45.141Z,24.87
2022-10-06T16:49:12.550Z,24.87
2022-10-06T16:51:41.491Z,24.60
2022-10-06T16:54:10.771Z,24.96
2022-10-06T16:56:39.951Z,25.33
2022-10-06T16:59:27.105Z,25.48
2022-10-06T17:01:53.921Z,25.95
2022-10-06T17:04:23.313Z,25.52
2022-10-06T17:06:55.155Z,24.73
2022-10-06T17:09:24.093Z,24.48
2022-10-06T17:11:55.884Z,24.21
2022-10-06T17:14:22.916Z,24.28
2022-10-06T17:16:51.884Z,24.31
2022-10-06T17:19:20.622Z,24.78
2022-10-06T17:21:50.532Z,25.63
2022-10-06T17:24:20.208Z,25.79
2022-10-06T17:26:48.946Z,24.61
2022-10-06T17:29:21.577Z,24.05
2022-10-06T17:31:50.847Z,24.75
2022-10-06T17:34:21.902Z,23.95
2022-10-06T17:36:52.119Z,23.79
2022-10-06T17:39:22.632Z,23.84
2022-10-06T17:41:51.620Z,24.70
2022-10-06T17:44:23.870Z,24.67
2022-10-06T17:46:52.852Z,24.66
2022-10-06T17:49:21.001Z,24.57
2022-10-06T17:51:48.552Z,24.84
2022-10-06T17:54:19.274Z,24.18
2022-10-06T17:56:48.109Z,23.58
2022-10-06T17:59:17.596Z,23.20
2022-10-06T18:01:45.492Z,23.21
2022-10-06T18:04:16.272Z,23.39
2022-10-06T18:06:44.159Z,23.70
2022-10-06T18:09:11.708Z,24.33
2022-10-06T18:11:41.724Z,24.46
2022-10-06T18:14:13.753Z,24.15
2022-10-06T18:16:50.862Z,24.18
2022-10-06T18:19:26.679Z,24.77
2022-10-06T18:21:55.101Z,24.38
2022-10-06T18:24:23.655Z,24.13
2022-10-06T18:26:52.649Z,23.69
2022-10-06T18:29:21.977Z,23.42
2022-10-06T18:31:50.308Z,23.20
2022-10-06T18:36:10.482Z,23.23
2022-10-06T18:37:04.677Z,23.79
2022-10-06T18:39:32.204Z,23.50
2022-10-06T18:42:03.839Z,23.25
2022-10-06T18:44:49.390Z,23.33
2022-10-06T18:47:35.060Z,23.30
2022-10-06T18:50:01.920Z,23.67
2022-10-06T18:52:28.790Z,23.36
2022-10-06T18:54:55.633Z,22.72
2022-10-06T18:57:27.260Z,22.45
2022-10-06T18:59:55.294Z,22.79
2022-10-06T19:02:22.354Z,23.75
2022-10-06T19:04:49.346Z,23.04
2022-10-06T19:07:16.220Z,23.07
2022-10-06T19:09:46.489Z,23.38
2022-10-06T19:12:14.198Z,23.23
2022-10-06T19:14:47.579Z,23.06
2022-10-06T19:17:15.668Z,22.88
2022-10-06T19:19:48.134Z,22.79
2022-10-06T19:22:14.997Z,23.00
2022-10-06T19:24:43.798Z,22.72
2022-10-06T19:27:18.097Z,22.34
2022-10-06T19:29:47.004Z,23.04
2022-10-06T19:32:16.360Z,22.61
2022-10-06T19:34:43.634Z,22.43
2022-10-06T19:37:10.658Z,22.81
2022-10-06T19:39:42.891Z,22.83
2022-10-06T19:42:30.280Z,23.13
2022-10-06T19:44:57.297Z,24.04
2022-10-06T19:47:24.344Z,23.37
2022-10-06T19:49:52.240Z,23.23
2022-10-06T19:52:19.107Z,23.46
2022-10-06T19:54:46.313Z,22.72
2022-10-06T19:57:13.516Z,22.58
2022-10-06T19:59:41.466Z,22.21
2022-10-06T20:02:09.807Z,21.78
2022-10-06T20:04:37.125Z,22.21
2022-10-06T20:07:04.225Z,21.85
2022-10-06T20:09:34.377Z,22.42
2022-10-06T20:12:04.419Z,21.62
2022-10-06T20:14:31.265Z,21.38
2022-10-06T20:16:58.223Z,21.65
2022-10-06T20:19:27.912Z,22.57
2022-10-06T20:21:54.817Z,22.67
2022-10-06T20:24:23.492Z,22.95
2022-10-06T20:26:51.354Z,22.80
2022-10-06T20:29:23.316Z,22.83
2022-10-06T20:31:52.280Z,22.45
2022-10-06T20:34:21.774Z,22.02
2022-10-06T20:36:51.856Z,22.05
2022-10-06T20:39:40.932Z,21.58
2022-10-06T20:42:13.895Z,21.91
2022-10-06T20:44:42.310Z,21.99
2022-10-06T20:47:10.606Z,22.21
2022-10-06T20:49:37.843Z,22.15
2022-10-06T20:52:05.887Z,21.94
2022-10-06T20:54:35.920Z,21.99
2022-10-06T20:57:05.257Z,22.15
2022-10-06T20:59:35.499Z,21.41
2022-10-06T21:02:03.316Z,21.41
2022-10-06T21:04:30.394Z,21.77
2022-10-06T21:06:57.629Z,22.31
2022-10-06T21:09:28.725Z,22.05
2022-10-06T21:11:57.560Z,21.61
2022-10-06T21:14:24.678Z,21.80
2022-10-06T21:16:52.021Z,22.15
2022-10-06T21:19:19.449Z,21.84
2022-10-06T21:21:51.996Z,21.97
2022-10-06T21:24:19.793Z,21.55
2022-10-06T21:26:46.801Z,21.55
2022-10-06T21:29:15.762Z,22.08
2022-10-06T21:31:43.804Z,22.11
2022-10-06T21:34:11.027Z,21.29
2022-10-06T21:36:38.316Z,20.92
2022-10-06T21:39:06.091Z,20.69
2022-10-06T21:41:39.346Z,20.77
2022-10-06T21:44:07.820Z,21.20
2022-10-06T21:46:40.126Z,21.77
2022-10-06T21:49:10.413Z,21.24
2022-10-06T21:51:37.739Z,21.16
2022-10-06T21:54:04.726Z,21.32
2022-10-06T21:56:32.875Z,22.09
2022-10-06T21:59:00.323Z,22.15
2022-10-06T22:01:32.187Z,21.42
2022-10-06T22:04:02.716Z,20.67
2022-10-06T22:06:31.284Z,19.95
2022-10-06T22:08:58.988Z,19.96
2022-10-06T22:11:28.567Z,19.89
2022-10-06T22:13:58.129Z,20.51
2022-10-06T22:16:27.904Z,20.47
2022-10-06T22:18:54.769Z,20.66
2022-10-06T22:21:26.947Z,20.51
2022-10-06T22:23:57.576Z,20.64
2022-10-06T22:26:25.554Z,20.99
2022-10-06T22:28:53.915Z,20.99
2022-10-06T22:31:25.802Z,20.79
2022-10-06T22:33:58.121Z,20.43
2022-10-06T22:36:26.295Z,20.57
2022-10-06T22:38:53.468Z,20.77
2022-10-06T22:41:20.343Z,20.58
2022-10-06T22:43:47.373Z,20.47
2022-10-06T22:46:14.574Z,20.70
2022-10-06T22:48:41.924Z,19.87
2022-10-06T22:51:08.784Z,19.94
2022-10-06T22:53:35.768Z,19.83
2022-10-06T22:56:04.109Z,20.00
2022-10-06T22:58:31.498Z,19.56
2022-10-06T23:00:58.418Z,19.42
2022-10-06T23:03:25.321Z,19.28
2022-10-06T23:06:00.113Z,20.23
2022-10-06T23:08:32.689Z,20.54
2022-10-06T23:11:10.594Z,19.89
2022-10-06T23:13:37.645Z,19.99
2022-10-06T23:16:08.651Z,20.13
2022-10-06T23:18:37.439Z,19.68
2022-10-06T23:21:09.351Z,19.59
2022-10-06T23:23:36.802Z,19.60
2022-10-06T23:26:14.404Z,19.32
2022-10-06T23:28:41.823Z,19.53
2022-10-06T23:31:09.976Z,19.30
2022-10-06T23:33:37.153Z,19.62
2022-10-06T23:36:11.431Z,20.57
2022-10-06T23:38:39.234Z,20.57
2022-10-06T23:41:06.985Z,20.49
2022-10-06T23:43:34.514Z,20.48
2022-10-06T23:46:01.865Z,20.16
2022-10-06T23:48:29.119Z,19.73
2022-10-06T23:51:03.395Z,19.76
2022-10-06T23:53:31.225Z,19.42
2022-10-06T23:55:58.778Z,19.47
2022-10-06T23:58:26.340Z,20.23
